Chilcoot, CA (96105)

4:38 PM PDT on May 04, 2015 (GMT -0700)
N. Red Rock Rd. | | Change Station
CLOSE
Current Station
Personal Weather Station
Location: Reno, NV
Elevation: 4859 ft
Nearby Weather Stations

Elev 4859 ft 39.89 °N, 119.99 °W | Updated 10 seconds ago

Clear
Clear
74.8 °F
Feels Like 75 °F
N
0.9
Wind Variable Wind from NW
Gusts 2.5 mph

Today
High -- | Low -- °F
--% Chance of Precip.
Yesterday
High -- | Low -- °F
Precip. -- in
5:57 AM 7:58 PM
Full, 99% visible
Pressure 29.89 in
Visibility 10.0 miles
Clouds Few 9500 ft
Heat Index 75 °F
Dew Point 19 °F
Humidity 12%
Rainfall 0.00 in
Snow Depth Not available.
UV 2.0 out of 12
Pollen 8.20 out of 12
Air Quality Not available.
Flu Activity Sporadic
METAR KRTS 042315Z AUTO 32012G20KT 10SM FEW095 22/M03 A2989 RMK AO2

More Conditions Fewer Conditions

Pressure 29.89 in
Visibility 10.0 miles
Clouds Few 9500 ft
Heat Index 75 °F
Dew Point 19 °F
Humidity 12%
Rainfall 0.00 in
Snow Depth Not available.
UV 2.0 out of 12
Pollen 8.20 out of 12
Air Quality Not available.
Flu Activity Sporadic
METAR KRTS 042315Z AUTO 32012G20KT 10SM FEW095 22/M03 A2989 RMK AO2

More Conditions Fewer Conditions

Nepal has a long way to go to dig out and rebuild from a devastating earthquake. We have teamed up with several charities and organizations to make contributing to the relief effort as easy as possible.
How you can help: Portlight Strategies | Red Cross

10-Day Weather Forecast

Almanac

Astronomy

May. 04, 2015 Rise Set
Actual Time
Civil Twilight
Nautical Twilight
Astronomical Twilight
Moon
Length of Visible Light
Length of Day
Tomorrow will be .
, % of the Moon is Illuminated

Today's Extremes

State Highs State Lows

Community

WunderPhotos

Upload Photos

1,818,734 photos uploaded!

WunderBlogs® & News

Nearby

Air Quality

  Air Quality AQ Index Pollutant
Not available.

Snow Depth

Station Depth Elevation

Earthquake Activity

City Distance Mag. Time & Date
Minimum magnitude displayed is 2.5.

Coastal Water Temperatures

Place Temperature

Stations

Nearby Weather Stations

Station Location Temp. Windchill Dew Point Humidity Wind Precip. Elev Updated Type